createdAt,value
2023-04-27T00:04:38.969Z,61103.50
2023-04-27T00:09:41.718Z,61051.88
2023-04-27T00:14:45.776Z,61106.81
2023-04-27T00:19:48.520Z,61063.69
2023-04-27T00:24:51.094Z,61060.34
2023-04-27T00:29:55.018Z,61029.97
2023-04-27T00:34:57.560Z,61013.72
2023-04-27T00:40:00.174Z,61009.06
2023-04-27T00:45:05.957Z,61054.84
2023-04-27T00:50:10.435Z,61024.19
2023-04-27T00:55:13.018Z,61034.16
2023-04-27T01:00:17.182Z,61006.78
2023-04-27T01:05:20.211Z,61025.50
2023-04-27T01:10:23.001Z,61007.00
2023-04-27T01:15:27.035Z,61018.81
2023-04-27T01:20:30.272Z,61043.75
2023-04-27T01:25:34.389Z,61020.75
2023-04-27T01:30:37.006Z,60994.72
2023-04-27T01:35:39.607Z,60989.09
2023-04-27T01:40:43.612Z,60998.66
2023-04-27T01:45:46.676Z,60965.00
2023-04-27T01:50:49.435Z,60997.38
2023-04-27T01:55:53.366Z,60962.72
2023-04-27T02:00:56.125Z,60974.72
2023-04-27T02:05:58.761Z,60949.72
2023-04-27T02:11:02.834Z,61011.63
2023-04-27T02:16:05.805Z,60964.50
2023-04-27T02:21:11.793Z,60998.16
2023-04-27T02:26:19.308Z,60961.41
2023-04-27T02:31:22.103Z,60979.75
2023-04-27T02:36:24.784Z,60942.19
2023-04-27T02:41:28.928Z,60950.81
2023-04-27T02:46:31.610Z,60944.06
2023-04-27T02:51:34.237Z,60930.25
2023-04-27T02:56:38.182Z,60963.16
2023-04-27T03:01:40.806Z,60938.34
2023-04-27T03:06:43.355Z,60926.88
2023-04-27T03:11:47.338Z,60938.88
2023-04-27T03:16:49.992Z,60963.16
2023-04-27T03:21:52.638Z,60973.38
2023-04-27T03:26:56.633Z,60933.44
2023-04-27T03:31:59.254Z,60972.53
2023-04-27T03:37:02.924Z,60908.03
2023-04-27T03:42:06.738Z,60929.25
2023-04-27T03:47:09.849Z,60933.81
2023-04-27T03:52:12.463Z,60929.34
2023-04-27T03:57:16.477Z,60935.91
2023-04-27T04:02:19.243Z,60956.94
2023-04-27T04:07:21.903Z,60933.59
2023-04-27T04:12:25.853Z,60967.41
2023-04-27T04:17:28.466Z,60962.78
2023-04-27T04:22:31.051Z,60956.03
2023-04-27T04:27:34.985Z,61009.91
2023-04-27T04:32:38.744Z,60964.75
2023-04-27T04:37:41.404Z,60976.06
2023-04-27T04:42:46.032Z,60996.13
2023-04-27T04:47:50.462Z,61031.56
2023-04-27T04:52:53.149Z,61048.53
2023-04-27T04:57:57.094Z,61131.63
2023-04-27T05:03:01.151Z,61095.44
2023-04-27T05:08:03.955Z,61076.28
2023-04-27T05:13:07.865Z,61071.94
2023-04-27T05:18:10.432Z,61067.94
2023-04-27T05:23:13.106Z,61049.13
2023-04-27T05:28:17.055Z,61054.47
2023-04-27T05:33:19.596Z,61085.56
2023-04-27T05:38:22.191Z,61133.66
2023-04-27T05:43:26.710Z,61153.09
2023-04-27T05:48:29.299Z,61180.69
2023-04-27T05:53:33.888Z,61210.25
2023-04-27T05:58:37.829Z,61197.25
2023-04-27T06:03:40.736Z,61250.69
2023-04-27T06:08:43.473Z,61275.34
2023-04-27T06:13:48.126Z,61302.31
2023-04-27T06:18:51.347Z,61435.81
2023-04-27T06:23:53.965Z,61644.00
2023-04-27T06:28:58.122Z,61779.28
2023-04-27T06:34:00.855Z,61928.16
2023-04-27T06:39:03.529Z,62045.59
2023-04-27T06:44:07.505Z,62104.38
2023-04-27T06:49:10.112Z,62149.16
2023-04-27T06:54:12.635Z,62190.84
2023-04-27T06:59:16.583Z,62289.31
2023-04-27T07:04:19.317Z,62328.13
2023-04-27T07:14:30.560Z,62328.41
2023-04-27T07:19:33.205Z,62433.78
2023-04-27T07:24:35.725Z,62416.59
2023-04-27T07:29:39.674Z,62448.91
2023-04-27T07:34:52.541Z,62377.69
2023-04-27T07:39:57.657Z,62493.84
2023-04-27T07:45:01.577Z,62525.13
2023-04-27T07:50:06.230Z,62452.81
2023-04-27T07:55:09.867Z,62572.28
2023-04-27T08:00:14.752Z,62535.06
2023-04-27T08:05:18.263Z,62440.88
2023-04-27T08:10:21.431Z,62550.09
2023-04-27T08:15:25.552Z,62618.25
2023-04-27T08:20:29.192Z,62509.19
2023-04-27T08:25:31.749Z,62519.25
2023-04-27T08:30:35.693Z,62568.81
2023-04-27T08:35:38.386Z,62565.81
2023-04-27T08:40:44.037Z,62588.81
2023-04-27T08:45:50.893Z,62600.59
2023-04-27T08:50:54.595Z,62703.44
2023-04-27T08:55:57.873Z,62666.44
2023-04-27T09:01:06.876Z,62730.00
2023-04-27T09:06:09.948Z,62735.25
2023-04-27T09:11:13.155Z,62602.75
2023-04-27T09:16:23.688Z,62580.56
2023-04-27T09:21:27.778Z,62657.69
2023-04-27T09:26:31.856Z,62678.81
2023-04-27T09:31:37.134Z,62808.72
2023-04-27T09:36:41.447Z,62687.66
2023-04-27T09:41:44.120Z,62673.72
2023-04-27T09:46:48.928Z,62615.16
2023-04-27T09:51:53.102Z,62627.34
2023-04-27T09:57:04.514Z,62637.47
2023-04-27T10:02:24.241Z,62572.81
2023-04-27T10:07:28.811Z,62571.34
2023-04-27T10:12:36.255Z,62541.72
2023-04-27T10:17:41.051Z,62566.44
2023-04-27T10:22:44.862Z,62666.63
2023-04-27T10:27:52.900Z,62667.34
2023-04-27T10:32:58.511Z,62695.19
2023-04-27T10:38:08.373Z,62719.84
2023-04-27T10:43:12.339Z,62690.66
2023-04-27T10:48:16.581Z,62658.41
2023-04-27T10:53:19.294Z,62739.84
2023-04-27T10:58:25.455Z,62730.28
2023-04-27T11:03:32.789Z,62764.84
2023-04-27T11:08:45.149Z,62785.53
2023-04-27T11:13:49.849Z,62840.69
2023-04-27T11:18:53.805Z,62854.72
2023-04-27T11:23:56.853Z,62697.38
2023-04-27T11:29:00.632Z,62697.56
2023-04-27T11:34:04.694Z,62695.06
2023-04-27T11:39:07.423Z,62834.22
2023-04-27T11:44:12.039Z,62800.41
2023-04-27T11:49:16.167Z,62696.31
2023-04-27T11:54:18.809Z,62822.41
2023-04-27T11:59:23.052Z,62823.13
2023-04-27T12:04:27.492Z,62749.63
2023-04-27T12:09:30.272Z,62884.38
2023-04-27T12:14:33.904Z,62846.38
2023-04-27T12:19:37.947Z,62861.22
2023-04-27T12:24:40.732Z,62870.84
2023-04-27T12:29:43.223Z,62842.88
2023-04-27T12:34:47.240Z,62856.25
2023-04-27T12:39:49.763Z,62871.63
2023-04-27T12:44:53.252Z,62939.25
2023-04-27T12:49:57.235Z,62873.69
2023-04-27T12:55:00.006Z,62779.31
2023-04-27T13:00:02.430Z,62913.63
2023-04-27T13:05:09.852Z,62840.63
2023-04-27T13:10:12.636Z,62827.75
2023-04-27T13:15:15.217Z,62793.72
2023-04-27T13:20:19.177Z,62732.44
2023-04-27T13:25:21.799Z,62663.00
2023-04-27T13:30:24.459Z,62705.31
2023-04-27T13:35:28.749Z,62798.53
2023-04-27T13:40:31.355Z,62733.75
2023-04-27T13:45:33.952Z,62776.31
2023-04-27T13:50:37.838Z,62728.31
2023-04-27T13:55:40.475Z,62770.19
2023-04-27T14:00:43.175Z,62655.38
2023-04-27T14:05:48.755Z,62688.88
2023-04-27T14:10:51.423Z,62700.94
2023-04-27T14:15:53.959Z,62737.41
2023-04-27T14:20:57.912Z,62631.72
2023-04-27T14:26:00.516Z,62735.03
2023-04-27T14:31:03.153Z,62766.22
2023-04-27T14:36:07.697Z,62697.19
2023-04-27T14:41:10.366Z,62714.53
2023-04-27T14:46:20.736Z,62578.19
2023-04-27T14:51:25.398Z,62560.84
2023-04-27T14:56:27.988Z,62580.97
2023-04-27T15:01:30.671Z,62580.75
2023-04-27T15:06:34.663Z,62564.09
2023-04-27T15:11:37.202Z,62442.00
2023-04-27T15:16:39.838Z,62474.22
2023-04-27T15:21:43.851Z,62451.13
2023-04-27T15:26:47.435Z,62445.34
2023-04-27T15:31:50.161Z,62420.81
2023-04-27T15:36:54.136Z,62414.25
2023-04-27T15:41:58.527Z,62438.81
2023-04-27T15:47:01.366Z,62460.38
2023-04-27T15:52:06.066Z,62448.59
2023-04-27T15:57:08.649Z,62450.50
2023-04-27T16:02:11.485Z,62432.13
2023-04-27T16:07:15.636Z,62442.38
2023-04-27T16:12:18.251Z,62430.72
2023-04-27T16:17:20.846Z,62448.81
2023-04-27T16:22:24.979Z,62492.78
2023-04-27T16:27:27.752Z,62477.94
2023-04-27T16:32:31.484Z,62411.09
2023-04-27T16:37:37.012Z,62395.75
2023-04-27T16:42:39.585Z,62387.22
2023-04-27T16:47:42.496Z,62357.81
2023-04-27T16:52:46.511Z,62329.19
2023-04-27T16:57:49.224Z,62323.34
2023-04-27T17:02:52.078Z,62335.66
2023-04-27T17:07:56.208Z,62282.25
2023-04-27T17:12:58.788Z,62252.91
2023-04-27T17:18:04.584Z,62189.03
2023-04-27T17:23:08.606Z,62205.94
2023-04-27T17:28:11.320Z,62157.44
2023-04-27T17:33:14.833Z,62169.81
2023-04-27T17:38:18.865Z,62156.59
2023-04-27T17:43:21.445Z,62142.66
2023-04-27T17:48:24.049Z,62120.63
2023-04-27T17:53:27.963Z,62114.69
2023-04-27T17:58:32.384Z,62125.97
2023-04-27T18:03:35.127Z,62085.00
2023-04-27T18:08:39.155Z,62099.91
2023-04-27T18:13:42.396Z,62068.41
2023-04-27T18:18:46.027Z,62062.44
2023-04-27T18:23:49.964Z,62087.25
2023-04-27T18:28:52.574Z,62038.50
2023-04-27T18:33:55.968Z,62055.53
2023-04-27T18:39:00.019Z,62024.44
2023-04-27T18:44:06.178Z,61988.25
2023-04-27T18:49:08.792Z,61987.84
2023-04-27T18:54:12.867Z,61987.56
2023-04-27T18:59:15.895Z,61961.75
2023-04-27T19:04:18.921Z,61958.34
2023-04-27T19:09:22.957Z,61928.63
2023-04-27T19:14:25.799Z,61933.63
2023-04-27T19:19:28.432Z,61906.78
2023-04-27T19:24:32.589Z,61898.31
2023-04-27T19:29:49.951Z,61921.94
2023-04-27T19:34:53.950Z,61889.44
2023-04-27T19:39:57.907Z,61873.88
2023-04-27T19:45:00.857Z,61840.84
2023-04-27T19:50:04.845Z,61845.25
2023-04-27T19:55:09.577Z,61830.50
2023-04-27T20:00:13.108Z,61829.44
2023-04-27T20:05:15.729Z,61823.22
2023-04-27T20:10:21.140Z,61866.84
2023-04-27T20:15:23.894Z,61842.91
2023-04-27T20:20:26.421Z,61802.28
2023-04-27T20:25:30.628Z,61802.16
2023-04-27T20:30:33.219Z,61847.72
2023-04-27T20:35:36.965Z,61824.25
2023-04-27T20:40:42.073Z,61786.66
2023-04-27T20:45:44.877Z,61791.91
2023-04-27T20:50:47.446Z,61786.13
2023-04-27T20:55:51.353Z,61806.91
2023-04-27T21:00:53.983Z,61814.75
2023-04-27T21:05:56.589Z,61804.06
2023-04-27T21:11:00.493Z,61848.78
2023-04-27T21:16:03.997Z,61849.44
2023-04-27T21:21:06.552Z,61803.78
2023-04-27T21:26:10.818Z,61824.56
2023-04-27T21:31:13.469Z,61828.91
2023-04-27T21:36:16.153Z,61833.03
2023-04-27T21:41:20.040Z,61845.03
2023-04-27T21:46:24.174Z,61827.41
2023-04-27T21:51:26.837Z,61808.19
2023-04-27T21:56:30.767Z,61827.94
2023-04-27T22:01:33.351Z,61819.03
2023-04-27T22:06:35.955Z,61842.31
2023-04-27T22:11:39.892Z,61841.84
2023-04-27T22:16:42.852Z,61847.03
2023-04-27T22:21:45.608Z,61805.91
2023-04-27T22:26:49.475Z,61834.34
2023-04-27T22:31:52.476Z,61823.34
2023-04-27T22:36:55.162Z,61808.25
2023-04-27T22:41:59.590Z,61794.16
2023-04-27T22:47:02.767Z,61813.16
2023-04-27T22:52:05.879Z,61797.00
2023-04-27T22:57:10.030Z,61781.91
2023-04-27T23:02:13.700Z,61792.28
2023-04-27T23:07:18.291Z,61763.69
2023-04-27T23:12:22.345Z,61798.41
2023-04-27T23:17:29.580Z,61794.28
2023-04-27T23:22:32.238Z,61793.69
2023-04-27T23:27:36.330Z,61756.78
2023-04-27T23:32:38.902Z,61765.63
2023-04-27T23:37:41.481Z,61778.50
2023-04-27T23:42:45.371Z,61782.09
2023-04-27T23:47:49.026Z,61811.59
2023-04-27T23:52:51.613Z,61764.56
2023-04-27T23:57:56.198Z,61723.97
